sensor_id;sensor_type;location;lat;lon;timestamp;P1;durP1;ratioP1;P2;durP2;ratioP2
20114;SDS011;10218;42.874;25.320;2022-12-07T00:01:10;52.53;;;20.13;;
20114;SDS011;10218;42.874;25.320;2022-12-07T00:03:40;61.50;;;22.13;;
20114;SDS011;10218;42.874;25.320;2022-12-07T00:06:09;126.10;;;23.90;;
20114;SDS011;10218;42.874;25.320;2022-12-07T00:08:38;53.00;;;20.10;;
20114;SDS011;10218;42.874;25.320;2022-12-07T00:11:06;100.37;;;21.73;;
20114;SDS011;10218;42.874;25.320;2022-12-07T00:13:38;95.90;;;21.40;;
20114;SDS011;10218;42.874;25.320;2022-12-07T00:16:14;48.43;;;20.30;;
20114;SDS011;10218;42.874;25.320;2022-12-07T00:18:42;94.70;;;21.57;;
20114;SDS011;10218;42.874;25.320;2022-12-07T00:21:18;63.33;;;20.30;;
20114;SDS011;10218;42.874;25.320;2022-12-07T00:23:47;75.87;;;21.47;;
20114;SDS011;10218;42.874;25.320;2022-12-07T00:26:18;61.23;;;20.10;;
20114;SDS011;10218;42.874;25.320;2022-12-07T00:28:47;47.97;;;18.23;;
20114;SDS011;10218;42.874;25.320;2022-12-07T00:31:18;48.03;;;19.60;;
20114;SDS011;10218;42.874;25.320;2022-12-07T00:33:49;93.67;;;19.03;;
20114;SDS011;10218;42.874;25.320;2022-12-07T00:36:18;54.93;;;18.17;;
20114;SDS011;10218;42.874;25.320;2022-12-07T00:38:50;95.33;;;18.20;;
20114;SDS011;10218;42.874;25.320;2022-12-07T00:41:18;77.33;;;19.27;;
20114;SDS011;10218;42.874;25.320;2022-12-07T00:43:48;46.20;;;16.30;;
20114;SDS011;10218;42.874;25.320;2022-12-07T00:46:16;42.87;;;16.30;;
20114;SDS011;10218;42.874;25.320;2022-12-07T00:48:44;44.33;;;17.33;;
20114;SDS011;10218;42.874;25.320;2022-12-07T00:51:13;34.17;;;15.23;;
20114;SDS011;10218;42.874;25.320;2022-12-07T00:53:41;39.97;;;15.03;;
20114;SDS011;10218;42.874;25.320;2022-12-07T00:56:12;39.37;;;15.57;;
20114;SDS011;10218;42.874;25.320;2022-12-07T00:58:40;33.93;;;15.80;;
20114;SDS011;10218;42.874;25.320;2022-12-07T01:01:08;34.23;;;15.53;;
20114;SDS011;10218;42.874;25.320;2022-12-07T01:03:37;38.73;;;15.70;;
20114;SDS011;10218;42.874;25.320;2022-12-07T01:06:05;41.60;;;17.13;;
20114;SDS011;10218;42.874;25.320;2022-12-07T01:08:32;33.70;;;16.40;;
20114;SDS011;10218;42.874;25.320;2022-12-07T01:11:01;33.63;;;15.50;;
20114;SDS011;10218;42.874;25.320;2022-12-07T01:13:31;42.40;;;16.67;;
20114;SDS011;10218;42.874;25.320;2022-12-07T01:16:01;36.93;;;15.00;;
20114;SDS011;10218;42.874;25.320;2022-12-07T01:18:32;36.53;;;15.47;;
20114;SDS011;10218;42.874;25.320;2022-12-07T01:23:30;31.57;;;15.10;;
20114;SDS011;10218;42.874;25.320;2022-12-07T01:25:59;35.97;;;15.40;;
20114;SDS011;10218;42.874;25.320;2022-12-07T01:28:28;33.43;;;15.23;;
20114;SDS011;10218;42.874;25.320;2022-12-07T01:30:59;34.00;;;15.30;;
20114;SDS011;10218;42.874;25.320;2022-12-07T01:33:29;28.87;;;13.60;;
20114;SDS011;10218;42.874;25.320;2022-12-07T01:36:04;27.53;;;13.33;;
20114;SDS011;10218;42.874;25.320;2022-12-07T01:38:34;31.60;;;13.83;;
20114;SDS011;10218;42.874;25.320;2022-12-07T01:41:01;34.17;;;16.33;;
20114;SDS011;10218;42.874;25.320;2022-12-07T01:43:30;30.50;;;15.47;;
20114;SDS011;10218;42.874;25.320;2022-12-07T01:45:59;30.50;;;15.20;;
20114;SDS011;10218;42.874;25.320;2022-12-07T01:48:29;31.33;;;15.70;;
20114;SDS011;10218;42.874;25.320;2022-12-07T01:51:05;29.67;;;16.10;;
20114;SDS011;10218;42.874;25.320;2022-12-07T01:53:37;32.90;;;16.63;;
20114;SDS011;10218;42.874;25.320;2022-12-07T01:56:08;30.10;;;15.17;;
20114;SDS011;10218;42.874;25.320;2022-12-07T01:58:43;30.33;;;14.27;;
20114;SDS011;10218;42.874;25.320;2022-12-07T02:01:12;32.40;;;15.57;;
20114;SDS011;10218;42.874;25.320;2022-12-07T02:03:41;30.23;;;14.73;;
20114;SDS011;10218;42.874;25.320;2022-12-07T02:06:11;31.63;;;15.67;;
20114;SDS011;10218;42.874;25.320;2022-12-07T02:08:43;27.87;;;14.67;;
20114;SDS011;10218;42.874;25.320;2022-12-07T02:11:10;27.60;;;14.40;;
20114;SDS011;10218;42.874;25.320;2022-12-07T02:13:38;35.37;;;17.20;;
20114;SDS011;10218;42.874;25.320;2022-12-07T02:30:06;26.93;;;13.87;;
20114;SDS011;10218;42.874;25.320;2022-12-07T02:35:57;26.07;;;13.47;;
20114;SDS011;10218;42.874;25.320;2022-12-07T02:41:20;37.60;;;15.70;;
20114;SDS011;10218;42.874;25.320;2022-12-07T02:43:54;36.67;;;16.93;;
20114;SDS011;10218;42.874;25.320;2022-12-07T02:46:28;34.63;;;16.40;;
20114;SDS011;10218;42.874;25.320;2022-12-07T02:48:59;31.50;;;15.87;;
20114;SDS011;10218;42.874;25.320;2022-12-07T02:51:31;38.33;;;18.47;;
20114;SDS011;10218;42.874;25.320;2022-12-07T02:53:59;41.83;;;20.17;;
20114;SDS011;10218;42.874;25.320;2022-12-07T02:59:24;39.50;;;18.90;;
20114;SDS011;10218;42.874;25.320;2022-12-07T03:15:42;32.93;;;17.37;;
20114;SDS011;10218;42.874;25.320;2022-12-07T03:18:16;33.63;;;16.30;;
20114;SDS011;10218;42.874;25.320;2022-12-07T03:20:48;34.50;;;15.93;;
20114;SDS011;10218;42.874;25.320;2022-12-07T03:23:17;29.47;;;15.23;;
20114;SDS011;10218;42.874;25.320;2022-12-07T03:25:47;30.03;;;15.33;;
20114;SDS011;10218;42.874;25.320;2022-12-07T03:28:22;29.63;;;14.40;;
20114;SDS011;10218;42.874;25.320;2022-12-07T03:30:57;28.40;;;14.87;;
20114;SDS011;10218;42.874;25.320;2022-12-07T03:33:58;34.03;;;16.53;;
20114;SDS011;10218;42.874;25.320;2022-12-07T03:36:47;32.07;;;16.43;;
20114;SDS011;10218;42.874;25.320;2022-12-07T03:39:25;36.40;;;17.67;;
20114;SDS011;10218;42.874;25.320;2022-12-07T03:41:54;35.13;;;18.40;;
20114;SDS011;10218;42.874;25.320;2022-12-07T03:44:24;35.60;;;18.20;;
20114;SDS011;10218;42.874;25.320;2022-12-07T03:47:01;32.70;;;16.00;;
20114;SDS011;10218;42.874;25.320;2022-12-07T03:49:47;28.83;;;15.00;;
20114;SDS011;10218;42.874;25.320;2022-12-07T03:57:49;31.83;;;15.33;;
20114;SDS011;10218;42.874;25.320;2022-12-07T04:00:20;32.23;;;15.67;;
20114;SDS011;10218;42.874;25.320;2022-12-07T04:02:48;26.70;;;14.80;;
20114;SDS011;10218;42.874;25.320;2022-12-07T04:05:18;28.30;;;14.97;;
20114;SDS011;10218;42.874;25.320;2022-12-07T04:07:45;30.20;;;15.83;;
20114;SDS011;10218;42.874;25.320;2022-12-07T04:10:13;28.67;;;15.97;;
20114;SDS011;10218;42.874;25.320;2022-12-07T04:12:40;32.90;;;17.57;;
20114;SDS011;10218;42.874;25.320;2022-12-07T04:15:07;30.07;;;16.93;;
20114;SDS011;10218;42.874;25.320;2022-12-07T04:17:35;29.93;;;16.50;;
20114;SDS011;10218;42.874;25.320;2022-12-07T04:20:02;30.60;;;16.10;;
20114;SDS011;10218;42.874;25.320;2022-12-07T04:22:31;34.17;;;17.13;;
20114;SDS011;10218;42.874;25.320;2022-12-07T04:24:58;30.13;;;16.30;;
20114;SDS011;10218;42.874;25.320;2022-12-07T04:27:25;37.50;;;18.77;;
20114;SDS011;10218;42.874;25.320;2022-12-07T04:29:52;35.73;;;19.13;;
20114;SDS011;10218;42.874;25.320;2022-12-07T04:32:20;37.10;;;18.80;;
20114;SDS011;10218;42.874;25.320;2022-12-07T04:34:48;36.40;;;19.30;;
20114;SDS011;10218;42.874;25.320;2022-12-07T04:37:18;35.97;;;19.70;;
20114;SDS011;10218;42.874;25.320;2022-12-07T04:39:45;37.70;;;19.47;;
20114;SDS011;10218;42.874;25.320;2022-12-07T04:42:12;35.00;;;19.07;;
20114;SDS011;10218;42.874;25.320;2022-12-07T04:44:39;57.20;;;32.97;;
20114;SDS011;10218;42.874;25.320;2022-12-07T04:47:06;51.33;;;28.80;;
20114;SDS011;10218;42.874;25.320;2022-12-07T04:49:33;51.43;;;25.97;;
20114;SDS011;10218;42.874;25.320;2022-12-07T04:52:00;36.73;;;20.50;;
20114;SDS011;10218;42.874;25.320;2022-12-07T04:54:28;43.63;;;23.57;;
20114;SDS011;10218;42.874;25.320;2022-12-07T04:56:55;45.70;;;23.67;;
20114;SDS011;10218;42.874;25.320;2022-12-07T04:59:22;40.33;;;21.20;;
20114;SDS011;10218;42.874;25.320;2022-12-07T05:01:49;38.33;;;19.37;;
20114;SDS011;10218;42.874;25.320;2022-12-07T05:04:16;41.77;;;22.30;;
20114;SDS011;10218;42.874;25.320;2022-12-07T05:06:44;37.40;;;19.87;;
20114;SDS011;10218;42.874;25.320;2022-12-07T05:09:12;35.50;;;18.93;;
20114;SDS011;10218;42.874;25.320;2022-12-07T05:11:39;29.97;;;16.57;;
20114;SDS011;10218;42.874;25.320;2022-12-07T05:14:10;30.30;;;16.63;;
20114;SDS011;10218;42.874;25.320;2022-12-07T05:16:48;37.17;;;18.80;;
20114;SDS011;10218;42.874;25.320;2022-12-07T05:19:16;38.53;;;20.17;;
20114;SDS011;10218;42.874;25.320;2022-12-07T05:21:44;48.67;;;29.37;;
20114;SDS011;10218;42.874;25.320;2022-12-07T05:24:12;46.30;;;23.77;;
20114;SDS011;10218;42.874;25.320;2022-12-07T05:26:41;48.40;;;26.80;;
20114;SDS011;10218;42.874;25.320;2022-12-07T05:29:10;46.50;;;25.70;;
20114;SDS011;10218;42.874;25.320;2022-12-07T05:31:39;36.97;;;19.80;;
20114;SDS011;10218;42.874;25.320;2022-12-07T05:34:06;38.50;;;22.00;;
20114;SDS011;10218;42.874;25.320;2022-12-07T05:36:34;36.10;;;19.70;;
20114;SDS011;10218;42.874;25.320;2022-12-07T05:39:02;39.33;;;21.23;;
20114;SDS011;10218;42.874;25.320;2022-12-07T05:41:29;44.10;;;25.07;;
20114;SDS011;10218;42.874;25.320;2022-12-07T05:44:15;45.23;;;25.17;;
20114;SDS011;10218;42.874;25.320;2022-12-07T05:46:42;52.83;;;29.03;;
20114;SDS011;10218;42.874;25.320;2022-12-07T05:49:09;60.73;;;33.53;;
20114;SDS011;10218;42.874;25.320;2022-12-07T05:51:36;64.03;;;34.90;;
20114;SDS011;10218;42.874;25.320;2022-12-07T05:54:03;66.10;;;35.57;;
20114;SDS011;10218;42.874;25.320;2022-12-07T05:56:33;66.60;;;36.13;;
20114;SDS011;10218;42.874;25.320;2022-12-07T05:59:00;79.73;;;46.00;;
20114;SDS011;10218;42.874;25.320;2022-12-07T06:01:46;69.93;;;37.97;;
20114;SDS011;10218;42.874;25.320;2022-12-07T06:04:14;70.43;;;36.50;;
20114;SDS011;10218;42.874;25.320;2022-12-07T06:06:41;67.73;;;36.87;;
20114;SDS011;10218;42.874;25.320;2022-12-07T06:09:07;69.20;;;37.00;;
20114;SDS011;10218;42.874;25.320;2022-12-07T06:11:35;69.43;;;38.33;;
20114;SDS011;10218;42.874;25.320;2022-12-07T06:14:20;76.50;;;39.40;;
20114;SDS011;10218;42.874;25.320;2022-12-07T06:16:48;81.33;;;41.23;;
20114;SDS011;10218;42.874;25.320;2022-12-07T06:19:15;83.93;;;41.40;;
20114;SDS011;10218;42.874;25.320;2022-12-07T06:21:42;92.53;;;44.47;;
20114;SDS011;10218;42.874;25.320;2022-12-07T06:24:10;82.03;;;45.13;;
20114;SDS011;10218;42.874;25.320;2022-12-07T06:26:39;79.70;;;45.43;;
20114;SDS011;10218;42.874;25.320;2022-12-07T06:29:06;84.83;;;43.80;;
20114;SDS011;10218;42.874;25.320;2022-12-07T06:31:34;77.87;;;41.73;;
20114;SDS011;10218;42.874;25.320;2022-12-07T06:34:03;78.30;;;41.00;;
20114;SDS011;10218;42.874;25.320;2022-12-07T06:36:31;96.33;;;46.50;;
20114;SDS011;10218;42.874;25.320;2022-12-07T06:38:59;112.73;;;60.13;;
20114;SDS011;10218;42.874;25.320;2022-12-07T06:41:26;112.23;;;61.33;;
20114;SDS011;10218;42.874;25.320;2022-12-07T06:43:53;87.23;;;49.13;;
20114;SDS011;10218;42.874;25.320;2022-12-07T06:46:22;78.83;;;42.83;;
20114;SDS011;10218;42.874;25.320;2022-12-07T06:48:49;71.17;;;38.33;;
20114;SDS011;10218;42.874;25.320;2022-12-07T06:51:16;79.67;;;38.63;;
20114;SDS011;10218;42.874;25.320;2022-12-07T06:53:44;69.47;;;37.33;;
20114;SDS011;10218;42.874;25.320;2022-12-07T06:56:11;76.63;;;39.83;;
20114;SDS011;10218;42.874;25.320;2022-12-07T06:58:39;73.03;;;40.50;;
20114;SDS011;10218;42.874;25.320;2022-12-07T07:01:10;79.47;;;42.63;;
20114;SDS011;10218;42.874;25.320;2022-12-07T07:03:38;72.07;;;38.23;;
20114;SDS011;10218;42.874;25.320;2022-12-07T07:06:05;79.10;;;43.97;;
20114;SDS011;10218;42.874;25.320;2022-12-07T07:08:34;72.37;;;38.93;;
20114;SDS011;10218;42.874;25.320;2022-12-07T07:11:02;63.97;;;33.97;;
20114;SDS011;10218;42.874;25.320;2022-12-07T07:13:29;51.10;;;27.23;;
20114;SDS011;10218;42.874;25.320;2022-12-07T07:15:57;45.67;;;26.47;;
20114;SDS011;10218;42.874;25.320;2022-12-07T07:18:24;52.30;;;27.67;;
20114;SDS011;10218;42.874;25.320;2022-12-07T07:20:52;61.80;;;31.13;;
20114;SDS011;10218;42.874;25.320;2022-12-07T07:23:20;77.87;;;41.33;;
20114;SDS011;10218;42.874;25.320;2022-12-07T07:25:48;89.90;;;44.03;;
20114;SDS011;10218;42.874;25.320;2022-12-07T07:28:15;81.03;;;41.93;;
20114;SDS011;10218;42.874;25.320;2022-12-07T07:30:43;82.63;;;44.13;;
20114;SDS011;10218;42.874;25.320;2022-12-07T07:33:11;81.27;;;45.00;;
20114;SDS011;10218;42.874;25.320;2022-12-07T07:35:39;80.83;;;43.97;;
20114;SDS011;10218;42.874;25.320;2022-12-07T07:38:06;78.87;;;40.17;;
20114;SDS011;10218;42.874;25.320;2022-12-07T07:40:34;70.90;;;38.60;;
20114;SDS011;10218;42.874;25.320;2022-12-07T07:43:02;77.50;;;40.53;;
20114;SDS011;10218;42.874;25.320;2022-12-07T07:45:29;73.60;;;37.40;;
20114;SDS011;10218;42.874;25.320;2022-12-07T07:47:59;73.40;;;39.53;;
20114;SDS011;10218;42.874;25.320;2022-12-07T07:50:26;75.47;;;41.33;;
20114;SDS011;10218;42.874;25.320;2022-12-07T07:52:53;76.23;;;37.77;;
20114;SDS011;10218;42.874;25.320;2022-12-07T07:55:20;68.27;;;37.60;;
20114;SDS011;10218;42.874;25.320;2022-12-07T07:57:47;61.47;;;35.17;;
20114;SDS011;10218;42.874;25.320;2022-12-07T08:00:18;68.90;;;35.87;;
20114;SDS011;10218;42.874;25.320;2022-12-07T08:02:46;60.67;;;34.87;;
20114;SDS011;10218;42.874;25.320;2022-12-07T08:05:13;70.87;;;38.27;;
20114;SDS011;10218;42.874;25.320;2022-12-07T08:07:40;107.40;;;49.17;;
20114;SDS011;10218;42.874;25.320;2022-12-07T08:10:09;90.97;;;48.77;;
20114;SDS011;10218;42.874;25.320;2022-12-07T08:12:39;81.67;;;46.73;;
20114;SDS011;10218;42.874;25.320;2022-12-07T08:15:28;82.13;;;45.00;;
20114;SDS011;10218;42.874;25.320;2022-12-07T08:17:57;81.27;;;42.07;;
20114;SDS011;10218;42.874;25.320;2022-12-07T08:20:24;81.20;;;43.07;;
20114;SDS011;10218;42.874;25.320;2022-12-07T08:22:52;81.03;;;45.83;;
20114;SDS011;10218;42.874;25.320;2022-12-07T08:25:19;77.00;;;40.63;;
20114;SDS011;10218;42.874;25.320;2022-12-07T08:27:47;69.67;;;40.57;;
20114;SDS011;10218;42.874;25.320;2022-12-07T08:30:15;74.90;;;43.10;;
20114;SDS011;10218;42.874;25.320;2022-12-07T08:32:46;71.57;;;40.97;;
20114;SDS011;10218;42.874;25.320;2022-12-07T08:35:14;76.67;;;39.93;;
20114;SDS011;10218;42.874;25.320;2022-12-07T08:37:42;71.77;;;43.40;;
20114;SDS011;10218;42.874;25.320;2022-12-07T08:40:09;76.23;;;42.13;;
20114;SDS011;10218;42.874;25.320;2022-12-07T08:42:38;73.77;;;44.27;;
20114;SDS011;10218;42.874;25.320;2022-12-07T08:45:07;86.20;;;47.40;;
20114;SDS011;10218;42.874;25.320;2022-12-07T08:47:52;85.60;;;49.10;;
20114;SDS011;10218;42.874;25.320;2022-12-07T08:50:27;81.90;;;46.80;;
20114;SDS011;10218;42.874;25.320;2022-12-07T08:52:56;84.67;;;45.93;;
20114;SDS011;10218;42.874;25.320;2022-12-07T08:55:25;76.87;;;44.23;;
20114;SDS011;10218;42.874;25.320;2022-12-07T08:57:53;82.63;;;43.73;;
20114;SDS011;10218;42.874;25.320;2022-12-07T09:00:21;92.83;;;50.13;;
20114;SDS011;10218;42.874;25.320;2022-12-07T09:02:49;100.57;;;52.83;;
20114;SDS011;10218;42.874;25.320;2022-12-07T09:05:16;111.10;;;56.70;;
20114;SDS011;10218;42.874;25.320;2022-12-07T09:07:43;107.17;;;52.93;;
20114;SDS011;10218;42.874;25.320;2022-12-07T09:10:13;102.27;;;52.90;;
20114;SDS011;10218;42.874;25.320;2022-12-07T09:12:40;82.10;;;47.77;;
20114;SDS011;10218;42.874;25.320;2022-12-07T09:15:07;73.43;;;44.20;;
20114;SDS011;10218;42.874;25.320;2022-12-07T09:17:35;69.03;;;40.03;;
20114;SDS011;10218;42.874;25.320;2022-12-07T09:20:03;72.47;;;40.03;;
20114;SDS011;10218;42.874;25.320;2022-12-07T09:22:32;75.27;;;42.70;;
20114;SDS011;10218;42.874;25.320;2022-12-07T09:25:00;67.70;;;37.77;;
20114;SDS011;10218;42.874;25.320;2022-12-07T09:27:28;70.93;;;37.80;;
20114;SDS011;10218;42.874;25.320;2022-12-07T09:29:55;71.07;;;38.83;;
20114;SDS011;10218;42.874;25.320;2022-12-07T09:32:22;68.03;;;38.90;;
20114;SDS011;10218;42.874;25.320;2022-12-07T09:34:49;66.17;;;37.43;;
20114;SDS011;10218;42.874;25.320;2022-12-07T09:37:16;68.97;;;35.80;;
20114;SDS011;10218;42.874;25.320;2022-12-07T09:39:44;60.70;;;31.33;;
20114;SDS011;10218;42.874;25.320;2022-12-07T09:42:37;50.73;;;29.23;;
20114;SDS011;10218;42.874;25.320;2022-12-07T09:45:07;44.97;;;26.30;;
20114;SDS011;10218;42.874;25.320;2022-12-07T09:47:40;44.13;;;25.53;;
20114;SDS011;10218;42.874;25.320;2022-12-07T09:50:42;40.67;;;25.50;;
20114;SDS011;10218;42.874;25.320;2022-12-07T09:53:08;48.20;;;26.70;;
20114;SDS011;10218;42.874;25.320;2022-12-07T09:55:41;41.63;;;25.90;;
20114;SDS011;10218;42.874;25.320;2022-12-07T09:58:28;41.10;;;23.07;;
20114;SDS011;10218;42.874;25.320;2022-12-07T10:01:05;37.53;;;22.30;;
20114;SDS011;10218;42.874;25.320;2022-12-07T10:03:38;37.40;;;20.50;;
20114;SDS011;10218;42.874;25.320;2022-12-07T10:06:06;41.60;;;21.87;;
20114;SDS011;10218;42.874;25.320;2022-12-07T10:08:34;39.07;;;22.23;;
20114;SDS011;10218;42.874;25.320;2022-12-07T10:11:02;41.43;;;24.13;;
20114;SDS011;10218;42.874;25.320;2022-12-07T10:13:40;43.73;;;23.23;;
20114;SDS011;10218;42.874;25.320;2022-12-07T10:17:02;38.97;;;22.77;;
20114;SDS011;10218;42.874;25.320;2022-12-07T10:24:38;41.10;;;22.50;;
20114;SDS011;10218;42.874;25.320;2022-12-07T10:27:17;40.13;;;23.20;;
20114;SDS011;10218;42.874;25.320;2022-12-07T10:29:49;44.80;;;24.43;;
20114;SDS011;10218;42.874;25.320;2022-12-07T10:34:45;42.83;;;24.37;;
20114;SDS011;10218;42.874;25.320;2022-12-07T10:37:17;41.87;;;23.93;;
20114;SDS011;10218;42.874;25.320;2022-12-07T10:42:16;41.70;;;23.23;;
20114;SDS011;10218;42.874;25.320;2022-12-07T11:04:56;48.27;;;26.80;;
20114;SDS011;10218;42.874;25.320;2022-12-07T11:10:12;59.13;;;26.87;;
20114;SDS011;10218;42.874;25.320;2022-12-07T11:18:03;37.13;;;20.73;;
20114;SDS011;10218;42.874;25.320;2022-12-07T11:20:43;38.97;;;20.10;;
20114;SDS011;10218;42.874;25.320;2022-12-07T11:26:41;34.33;;;20.30;;
20114;SDS011;10218;42.874;25.320;2022-12-07T11:40:45;43.00;;;26.87;;
20114;SDS011;10218;42.874;25.320;2022-12-07T11:43:20;45.37;;;27.40;;
20114;SDS011;10218;42.874;25.320;2022-12-07T11:45:59;39.27;;;25.57;;
20114;SDS011;10218;42.874;25.320;2022-12-07T11:48:46;45.43;;;27.43;;
20114;SDS011;10218;42.874;25.320;2022-12-07T11:51:35;44.77;;;28.20;;
20114;SDS011;10218;42.874;25.320;2022-12-07T11:54:09;49.73;;;29.80;;
20114;SDS011;10218;42.874;25.320;2022-12-07T11:56:41;46.63;;;29.00;;
20114;SDS011;10218;42.874;25.320;2022-12-07T11:59:15;44.87;;;29.20;;
20114;SDS011;10218;42.874;25.320;2022-12-07T12:05:26;51.77;;;34.33;;
20114;SDS011;10218;42.874;25.320;2022-12-07T12:07:33;52.63;;;36.67;;
20114;SDS011;10218;42.874;25.320;2022-12-07T12:10:24;50.63;;;33.73;;
20114;SDS011;10218;42.874;25.320;2022-12-07T12:13:29;49.80;;;30.57;;
20114;SDS011;10218;42.874;25.320;2022-12-07T12:22:51;40.37;;;26.23;;
20114;SDS011;10218;42.874;25.320;2022-12-07T12:28:22;35.23;;;24.13;;
20114;SDS011;10218;42.874;25.320;2022-12-07T12:31:06;35.33;;;24.07;;
20114;SDS011;10218;42.874;25.320;2022-12-07T12:33:42;40.93;;;23.77;;
20114;SDS011;10218;42.874;25.320;2022-12-07T12:49:35;34.97;;;20.93;;
20114;SDS011;10218;42.874;25.320;2022-12-07T12:57:40;30.57;;;20.17;;
20114;SDS011;10218;42.874;25.320;2022-12-07T13:02:49;28.57;;;19.33;;
20114;SDS011;10218;42.874;25.320;2022-12-07T13:05:24;30.37;;;19.67;;
20114;SDS011;10218;42.874;25.320;2022-12-07T13:07:56;28.40;;;19.10;;
20114;SDS011;10218;42.874;25.320;2022-12-07T13:10:30;31.20;;;19.00;;
20114;SDS011;10218;42.874;25.320;2022-12-07T13:20:58;34.10;;;18.33;;
20114;SDS011;10218;42.874;25.320;2022-12-07T13:26:35;29.67;;;18.90;;
20114;SDS011;10218;42.874;25.320;2022-12-07T13:29:12;33.23;;;20.43;;
20114;SDS011;10218;42.874;25.320;2022-12-07T13:31:47;36.00;;;22.23;;
20114;SDS011;10218;42.874;25.320;2022-12-07T13:39:59;40.17;;;24.63;;
20114;SDS011;10218;42.874;25.320;2022-12-07T13:42:43;41.50;;;24.13;;
20114;SDS011;10218;42.874;25.320;2022-12-07T13:45:21;60.83;;;31.47;;
20114;SDS011;10218;42.874;25.320;2022-12-07T13:48:15;60.07;;;28.00;;
20114;SDS011;10218;42.874;25.320;2022-12-07T13:50:57;64.00;;;31.30;;
20114;SDS011;10218;42.874;25.320;2022-12-07T13:53:26;60.97;;;31.13;;
20114;SDS011;10218;42.874;25.320;2022-12-07T13:55:57;104.40;;;39.10;;
20114;SDS011;10218;42.874;25.320;2022-12-07T13:58:30;68.40;;;33.60;;
20114;SDS011;10218;42.874;25.320;2022-12-07T14:00:59;69.03;;;27.00;;
20114;SDS011;10218;42.874;25.320;2022-12-07T14:03:28;49.03;;;22.57;;
20114;SDS011;10218;42.874;25.320;2022-12-07T14:06:31;46.40;;;19.70;;
20114;SDS011;10218;42.874;25.320;2022-12-07T14:09:28;44.07;;;18.90;;
20114;SDS011;10218;42.874;25.320;2022-12-07T14:11:49;47.33;;;23.03;;
20114;SDS011;10218;42.874;25.320;2022-12-07T14:14:20;57.37;;;29.07;;
20114;SDS011;10218;42.874;25.320;2022-12-07T14:16:55;61.17;;;32.23;;
20114;SDS011;10218;42.874;25.320;2022-12-07T14:19:47;42.80;;;23.43;;
20114;SDS011;10218;42.874;25.320;2022-12-07T14:24:46;42.33;;;22.83;;
20114;SDS011;10218;42.874;25.320;2022-12-07T14:27:17;49.73;;;24.00;;
20114;SDS011;10218;42.874;25.320;2022-12-07T14:29:46;55.77;;;33.57;;
20114;SDS011;10218;42.874;25.320;2022-12-07T14:37:28;47.27;;;28.37;;
20114;SDS011;10218;42.874;25.320;2022-12-07T14:39:56;48.83;;;29.33;;
20114;SDS011;10218;42.874;25.320;2022-12-07T14:42:25;53.13;;;28.00;;
20114;SDS011;10218;42.874;25.320;2022-12-07T14:44:57;49.50;;;28.43;;
20114;SDS011;10218;42.874;25.320;2022-12-07T14:47:25;46.50;;;26.83;;
20114;SDS011;10218;42.874;25.320;2022-12-07T14:50:14;44.30;;;25.60;;
20114;SDS011;10218;42.874;25.320;2022-12-07T14:52:43;46.17;;;24.57;;
20114;SDS011;10218;42.874;25.320;2022-12-07T14:55:42;43.00;;;23.93;;
20114;SDS011;10218;42.874;25.320;2022-12-07T14:58:13;45.13;;;23.90;;
20114;SDS011;10218;42.874;25.320;2022-12-07T15:00:42;45.37;;;24.67;;
20114;SDS011;10218;42.874;25.320;2022-12-07T15:03:09;62.20;;;31.67;;
20114;SDS011;10218;42.874;25.320;2022-12-07T15:05:36;46.93;;;24.80;;
20114;SDS011;10218;42.874;25.320;2022-12-07T15:08:04;45.20;;;24.43;;
20114;SDS011;10218;42.874;25.320;2022-12-07T15:10:33;56.37;;;28.27;;
20114;SDS011;10218;42.874;25.320;2022-12-07T15:13:02;58.93;;;33.60;;
20114;SDS011;10218;42.874;25.320;2022-12-07T15:15:49;45.43;;;24.87;;
20114;SDS011;10218;42.874;25.320;2022-12-07T15:18:17;43.30;;;24.30;;
20114;SDS011;10218;42.874;25.320;2022-12-07T15:20:45;50.57;;;25.87;;
20114;SDS011;10218;42.874;25.320;2022-12-07T15:23:13;64.90;;;35.23;;
20114;SDS011;10218;42.874;25.320;2022-12-07T15:25:41;63.10;;;36.13;;
20114;SDS011;10218;42.874;25.320;2022-12-07T15:28:09;56.67;;;32.23;;
20114;SDS011;10218;42.874;25.320;2022-12-07T15:30:37;55.67;;;31.13;;
20114;SDS011;10218;42.874;25.320;2022-12-07T15:33:05;65.90;;;38.17;;
20114;SDS011;10218;42.874;25.320;2022-12-07T15:35:32;63.03;;;34.37;;
20114;SDS011;10218;42.874;25.320;2022-12-07T15:37:59;67.57;;;33.33;;
20114;SDS011;10218;42.874;25.320;2022-12-07T15:40:26;75.27;;;37.80;;
20114;SDS011;10218;42.874;25.320;2022-12-07T15:42:53;76.37;;;42.00;;
20114;SDS011;10218;42.874;25.320;2022-12-07T15:45:21;150.20;;;78.20;;
20114;SDS011;10218;42.874;25.320;2022-12-07T15:47:48;97.90;;;58.30;;
20114;SDS011;10218;42.874;25.320;2022-12-07T15:50:35;58.27;;;34.43;;
20114;SDS011;10218;42.874;25.320;2022-12-07T15:53:02;53.70;;;27.07;;
20114;SDS011;10218;42.874;25.320;2022-12-07T15:55:29;52.60;;;29.43;;
20114;SDS011;10218;42.874;25.320;2022-12-07T15:57:57;102.03;;;52.07;;
20114;SDS011;10218;42.874;25.320;2022-12-07T16:00:24;87.00;;;46.70;;
20114;SDS011;10218;42.874;25.320;2022-12-07T16:02:51;94.23;;;49.93;;
20114;SDS011;10218;42.874;25.320;2022-12-07T16:05:18;96.30;;;52.83;;
20114;SDS011;10218;42.874;25.320;2022-12-07T16:07:46;98.27;;;53.57;;
20114;SDS011;10218;42.874;25.320;2022-12-07T16:10:14;74.30;;;35.57;;
20114;SDS011;10218;42.874;25.320;2022-12-07T16:12:41;57.97;;;31.07;;
20114;SDS011;10218;42.874;25.320;2022-12-07T16:15:08;88.33;;;49.77;;
20114;SDS011;10218;42.874;25.320;2022-12-07T16:17:36;102.33;;;53.13;;
20114;SDS011;10218;42.874;25.320;2022-12-07T16:20:03;98.33;;;53.07;;
20114;SDS011;10218;42.874;25.320;2022-12-07T16:22:30;107.40;;;57.13;;
20114;SDS011;10218;42.874;25.320;2022-12-07T16:24:58;106.77;;;57.63;;
20114;SDS011;10218;42.874;25.320;2022-12-07T16:27:25;103.40;;;57.50;;
20114;SDS011;10218;42.874;25.320;2022-12-07T16:29:52;140.93;;;72.53;;
20114;SDS011;10218;42.874;25.320;2022-12-07T16:32:19;174.80;;;90.30;;
20114;SDS011;10218;42.874;25.320;2022-12-07T16:34:46;255.60;;;125.23;;
20114;SDS011;10218;42.874;25.320;2022-12-07T16:37:13;247.83;;;131.73;;
20114;SDS011;10218;42.874;25.320;2022-12-07T16:39:40;296.87;;;155.10;;
20114;SDS011;10218;42.874;25.320;2022-12-07T16:42:07;163.90;;;87.90;;
20114;SDS011;10218;42.874;25.320;2022-12-07T16:44:35;130.07;;;73.33;;
20114;SDS011;10218;42.874;25.320;2022-12-07T16:47:02;141.40;;;78.80;;
20114;SDS011;10218;42.874;25.320;2022-12-07T16:49:29;147.60;;;78.93;;
20114;SDS011;10218;42.874;25.320;2022-12-07T16:51:56;153.03;;;82.67;;
20114;SDS011;10218;42.874;25.320;2022-12-07T16:54:41;160.13;;;87.97;;
20114;SDS011;10218;42.874;25.320;2022-12-07T16:57:07;184.03;;;97.63;;
20114;SDS011;10218;42.874;25.320;2022-12-07T16:59:34;180.63;;;97.07;;
20114;SDS011;10218;42.874;25.320;2022-12-07T17:02:02;174.33;;;89.77;;
20114;SDS011;10218;42.874;25.320;2022-12-07T17:04:30;156.37;;;86.47;;
20114;SDS011;10218;42.874;25.320;2022-12-07T17:06:57;166.47;;;89.23;;